Strona główna
METAR-TAF:

METAR-TAF

Lotnisko :

Port lotniczy Derry

Londonderry, Irlandia Północna

Szerokość geograficzna: 55-03N, Długość geograficzna: 007-09W, wysokość: 9 m

Aktualna obserwacja pogody

Raport powstał 7 godziny i 14 minut temu, godzina 19:20 UTC
Wiatr 7 kt od północno-północny zachód
Temperatura 8°C
Wilgotność 81%
Ciśnienie 1034 hPa
Widzialność 10 km lub więcej
Mało chmury na wysokości 1500 ft
Przerywane chmury na wysokości 4400 ft
słaby przelotny opad deszczu

METAR: EGAE 311920Z 33007KT 9999 -SHRA FEW015 BKN044 08/05 Q1034

czas: 03:34 (02:34 UTC)

Prognoza

Raport powstał 9 godziny i 39 minut temu, godzina 16:55 UTC
Prognoza ważna od 31 godzina 18 UTC do 31 godzina 20 UTC
Wiatr 9 kt od północ
Widzialność 10 km lub więcej
Mało chmury na wysokości 2000 ft
Rozproszone chmury na wysokości 3500 ft

TAF: EGAE 311655Z 3118/3120 35009KT 9999 FEW020 SCT035

Obserwacja i prognoza pogody dla ponad 4000 lotnisk (raport METAR i TAF).

Dostępne stacje oznaczono żółtymi i czerwonymi punktami na mapie.

Najedź kursorem aby zobaczyć nazwę stacji.

Kliknij aby zobaczyć obserwacje i prognozy pogody.

Aby zmienić mapę: kliknij na zielony przycisk z czarnym krzyżykiem, aby powiększyć; na zielony przycisk z myślnikiem, aby pomniejszyć; na zielone strzałki, aby przejść do map sąsiednich.


METAR-TAF: